sensor_id;sensor_type;location;lat;lon;timestamp;P1;durP1;ratioP1;P2;durP2;ratioP2
58528;SDS011;44322;52.968;5.816;2023-07-08T00:00:27;6.57;;;5.00;;
58528;SDS011;44322;52.968;5.816;2023-07-08T00:02:53;7.60;;;4.70;;
58528;SDS011;44322;52.968;5.816;2023-07-08T00:05:19;5.82;;;4.85;;
58528;SDS011;44322;52.968;5.816;2023-07-08T00:07:46;7.07;;;4.75;;
58528;SDS011;44322;52.968;5.816;2023-07-08T00:10:13;9.07;;;5.35;;
58528;SDS011;44322;52.968;5.816;2023-07-08T00:12:40;7.83;;;4.93;;
58528;SDS011;44322;52.968;5.816;2023-07-08T00:15:06;8.52;;;4.95;;
58528;SDS011;44322;52.968;5.816;2023-07-08T00:17:32;7.75;;;4.80;;
58528;SDS011;44322;52.968;5.816;2023-07-08T00:19:57;10.20;;;5.28;;
58528;SDS011;44322;52.968;5.816;2023-07-08T00:22:23;9.93;;;5.45;;
58528;SDS011;44322;52.968;5.816;2023-07-08T00:24:50;7.43;;;4.55;;
58528;SDS011;44322;52.968;5.816;2023-07-08T00:27:15;6.53;;;5.03;;
58528;SDS011;44322;52.968;5.816;2023-07-08T00:29:41;7.68;;;4.97;;
58528;SDS011;44322;52.968;5.816;2023-07-08T00:32:11;9.05;;;4.93;;
58528;SDS011;44322;52.968;5.816;2023-07-08T00:34:38;10.10;;;5.75;;
58528;SDS011;44322;52.968;5.816;2023-07-08T00:37:04;8.73;;;5.20;;
58528;SDS011;44322;52.968;5.816;2023-07-08T00:39:31;7.15;;;5.28;;
58528;SDS011;44322;52.968;5.816;2023-07-08T00:41:58;8.07;;;5.60;;
58528;SDS011;44322;52.968;5.816;2023-07-08T00:44:25;7.20;;;4.85;;
58528;SDS011;44322;52.968;5.816;2023-07-08T00:49:36;8.25;;;5.78;;
58528;SDS011;44322;52.968;5.816;2023-07-08T00:52:19;8.05;;;5.50;;
58528;SDS011;44322;52.968;5.816;2023-07-08T00:54:55;7.57;;;5.00;;
58528;SDS011;44322;52.968;5.816;2023-07-08T00:57:26;7.57;;;5.00;;
58528;SDS011;44322;52.968;5.816;2023-07-08T01:00:04;8.90;;;5.40;;
58528;SDS011;44322;52.968;5.816;2023-07-08T01:02:40;7.65;;;5.20;;
58528;SDS011;44322;52.968;5.816;2023-07-08T01:05:09;7.03;;;4.95;;
58528;SDS011;44322;52.968;5.816;2023-07-08T01:07:38;7.82;;;4.93;;
58528;SDS011;44322;52.968;5.816;2023-07-08T01:10:12;7.75;;;5.03;;
58528;SDS011;44322;52.968;5.816;2023-07-08T01:12:43;6.60;;;5.45;;
58528;SDS011;44322;52.968;5.816;2023-07-08T01:15:11;8.75;;;5.43;;
58528;SDS011;44322;52.968;5.816;2023-07-08T01:17:38;10.63;;;6.07;;
58528;SDS011;44322;52.968;5.816;2023-07-08T01:20:05;7.30;;;5.20;;
58528;SDS011;44322;52.968;5.816;2023-07-08T01:22:37;9.17;;;4.90;;
58528;SDS011;44322;52.968;5.816;2023-07-08T01:25:04;8.32;;;5.70;;
58528;SDS011;44322;52.968;5.816;2023-07-08T01:27:31;8.15;;;5.75;;
58528;SDS011;44322;52.968;5.816;2023-07-08T01:30:00;10.38;;;5.40;;
58528;SDS011;44322;52.968;5.816;2023-07-08T01:32:27;7.88;;;5.50;;
58528;SDS011;44322;52.968;5.816;2023-07-08T01:34:54;9.80;;;5.45;;
58528;SDS011;44322;52.968;5.816;2023-07-08T01:37:42;8.32;;;5.40;;
58528;SDS011;44322;52.968;5.816;2023-07-08T01:42:44;9.45;;;5.70;;
58528;SDS011;44322;52.968;5.816;2023-07-08T01:45:10;9.32;;;5.80;;
58528;SDS011;44322;52.968;5.816;2023-07-08T01:47:37;8.52;;;5.80;;
58528;SDS011;44322;52.968;5.816;2023-07-08T01:50:03;7.68;;;5.93;;
58528;SDS011;44322;52.968;5.816;2023-07-08T01:52:29;9.80;;;6.00;;
58528;SDS011;44322;52.968;5.816;2023-07-08T01:54:55;8.32;;;5.82;;
58528;SDS011;44322;52.968;5.816;2023-07-08T01:57:21;8.23;;;5.47;;
58528;SDS011;44322;52.968;5.816;2023-07-08T01:59:46;8.55;;;5.80;;
58528;SDS011;44322;52.968;5.816;2023-07-08T02:02:13;8.45;;;6.05;;
58528;SDS011;44322;52.968;5.816;2023-07-08T02:04:39;8.93;;;5.70;;
58528;SDS011;44322;52.968;5.816;2023-07-08T02:07:05;9.45;;;5.82;;
58528;SDS011;44322;52.968;5.816;2023-07-08T02:09:30;10.48;;;5.70;;
58528;SDS011;44322;52.968;5.816;2023-07-08T02:11:56;7.90;;;5.95;;
58528;SDS011;44322;52.968;5.816;2023-07-08T02:14:22;9.30;;;5.68;;
58528;SDS011;44322;52.968;5.816;2023-07-08T02:16:48;8.48;;;5.90;;
58528;SDS011;44322;52.968;5.816;2023-07-08T02:19:13;10.05;;;6.35;;
58528;SDS011;44322;52.968;5.816;2023-07-08T02:21:39;8.63;;;6.00;;
58528;SDS011;44322;52.968;5.816;2023-07-08T02:24:06;6.95;;;5.55;;
58528;SDS011;44322;52.968;5.816;2023-07-08T02:26:34;9.82;;;6.00;;
58528;SDS011;44322;52.968;5.816;2023-07-08T02:29:00;9.23;;;6.07;;
58528;SDS011;44322;52.968;5.816;2023-07-08T02:31:26;9.10;;;6.10;;
58528;SDS011;44322;52.968;5.816;2023-07-08T02:33:52;9.07;;;6.45;;
58528;SDS011;44322;52.968;5.816;2023-07-08T02:36:18;8.13;;;5.95;;
58528;SDS011;44322;52.968;5.816;2023-07-08T02:38:44;7.45;;;6.43;;
58528;SDS011;44322;52.968;5.816;2023-07-08T02:41:10;9.18;;;5.97;;
58528;SDS011;44322;52.968;5.816;2023-07-08T02:43:37;7.80;;;6.40;;
58528;SDS011;44322;52.968;5.816;2023-07-08T02:46:04;7.82;;;6.25;;
58528;SDS011;44322;52.968;5.816;2023-07-08T02:48:30;8.30;;;6.15;;
58528;SDS011;44322;52.968;5.816;2023-07-08T02:50:59;7.95;;;5.90;;
58528;SDS011;44322;52.968;5.816;2023-07-08T02:53:25;8.63;;;7.10;;
58528;SDS011;44322;52.968;5.816;2023-07-08T02:55:51;10.50;;;6.93;;
58528;SDS011;44322;52.968;5.816;2023-07-08T02:58:16;9.15;;;6.32;;
58528;SDS011;44322;52.968;5.816;2023-07-08T03:00:42;9.57;;;6.40;;
58528;SDS011;44322;52.968;5.816;2023-07-08T03:03:08;12.75;;;6.90;;
58528;SDS011;44322;52.968;5.816;2023-07-08T03:05:33;10.35;;;7.28;;
58528;SDS011;44322;52.968;5.816;2023-07-08T03:07:59;8.05;;;6.32;;
58528;SDS011;44322;52.968;5.816;2023-07-08T03:10:25;8.02;;;5.88;;
58528;SDS011;44322;52.968;5.816;2023-07-08T03:12:51;8.07;;;6.32;;
58528;SDS011;44322;52.968;5.816;2023-07-08T03:15:17;9.95;;;7.18;;
58528;SDS011;44322;52.968;5.816;2023-07-08T03:17:42;10.15;;;6.82;;
58528;SDS011;44322;52.968;5.816;2023-07-08T03:20:09;8.48;;;6.82;;
58528;SDS011;44322;52.968;5.816;2023-07-08T03:22:36;10.25;;;6.07;;
58528;SDS011;44322;52.968;5.816;2023-07-08T03:25:02;15.45;;;7.10;;
58528;SDS011;44322;52.968;5.816;2023-07-08T03:27:29;11.67;;;6.37;;
58528;SDS011;44322;52.968;5.816;2023-07-08T03:29:54;7.70;;;6.15;;
58528;SDS011;44322;52.968;5.816;2023-07-08T03:32:21;8.77;;;6.95;;
58528;SDS011;44322;52.968;5.816;2023-07-08T03:34:46;8.25;;;6.68;;
58528;SDS011;44322;52.968;5.816;2023-07-08T03:37:12;11.65;;;7.60;;
58528;SDS011;44322;52.968;5.816;2023-07-08T03:39:38;10.52;;;6.85;;
58528;SDS011;44322;52.968;5.816;2023-07-08T03:42:03;11.13;;;7.10;;
58528;SDS011;44322;52.968;5.816;2023-07-08T03:44:30;8.18;;;7.00;;
58528;SDS011;44322;52.968;5.816;2023-07-08T03:46:55;8.40;;;6.07;;
58528;SDS011;44322;52.968;5.816;2023-07-08T03:49:21;9.00;;;6.72;;
58528;SDS011;44322;52.968;5.816;2023-07-08T03:51:50;7.53;;;6.43;;
58528;SDS011;44322;52.968;5.816;2023-07-08T03:54:19;9.52;;;7.05;;
58528;SDS011;44322;52.968;5.816;2023-07-08T03:56:46;9.45;;;7.03;;
58528;SDS011;44322;52.968;5.816;2023-07-08T03:59:12;9.05;;;7.30;;
58528;SDS011;44322;52.968;5.816;2023-07-08T04:01:38;10.18;;;6.88;;
58528;SDS011;44322;52.968;5.816;2023-07-08T04:04:08;9.75;;;6.68;;
58528;SDS011;44322;52.968;5.816;2023-07-08T04:06:35;10.90;;;7.15;;
58528;SDS011;44322;52.968;5.816;2023-07-08T04:09:01;10.40;;;6.90;;
58528;SDS011;44322;52.968;5.816;2023-07-08T04:11:26;9.85;;;6.90;;
58528;SDS011;44322;52.968;5.816;2023-07-08T04:13:52;9.55;;;6.43;;
58528;SDS011;44322;52.968;5.816;2023-07-08T04:18:54;11.23;;;6.80;;
58528;SDS011;44322;52.968;5.816;2023-07-08T04:21:21;7.70;;;6.38;;
58528;SDS011;44322;52.968;5.816;2023-07-08T04:23:48;8.57;;;6.82;;
58528;SDS011;44322;52.968;5.816;2023-07-08T04:26:13;9.20;;;7.07;;
58528;SDS011;44322;52.968;5.816;2023-07-08T04:28:39;10.00;;;6.90;;
58528;SDS011;44322;52.968;5.816;2023-07-08T04:31:04;10.90;;;7.15;;
58528;SDS011;44322;52.968;5.816;2023-07-08T04:33:30;8.27;;;6.60;;
58528;SDS011;44322;52.968;5.816;2023-07-08T04:35:56;9.40;;;6.90;;
58528;SDS011;44322;52.968;5.816;2023-07-08T04:38:22;9.35;;;6.70;;
58528;SDS011;44322;52.968;5.816;2023-07-08T04:40:49;11.18;;;7.00;;
58528;SDS011;44322;52.968;5.816;2023-07-08T04:43:16;9.57;;;6.80;;
58528;SDS011;44322;52.968;5.816;2023-07-08T04:45:42;8.85;;;6.82;;
58528;SDS011;44322;52.968;5.816;2023-07-08T04:48:12;10.30;;;6.72;;
58528;SDS011;44322;52.968;5.816;2023-07-08T04:50:42;8.93;;;6.60;;
58528;SDS011;44322;52.968;5.816;2023-07-08T04:53:08;8.23;;;6.45;;
58528;SDS011;44322;52.968;5.816;2023-07-08T04:55:35;7.40;;;6.22;;
58528;SDS011;44322;52.968;5.816;2023-07-08T04:58:01;9.70;;;6.55;;
58528;SDS011;44322;52.968;5.816;2023-07-08T05:00:27;9.27;;;6.88;;
58528;SDS011;44322;52.968;5.816;2023-07-08T05:02:53;9.43;;;6.72;;
58528;SDS011;44322;52.968;5.816;2023-07-08T05:05:19;10.65;;;6.50;;
58528;SDS011;44322;52.968;5.816;2023-07-08T05:07:45;7.93;;;6.53;;
58528;SDS011;44322;52.968;5.816;2023-07-08T05:10:11;8.48;;;6.32;;
58528;SDS011;44322;52.968;5.816;2023-07-08T05:12:37;8.50;;;6.47;;
58528;SDS011;44322;52.968;5.816;2023-07-08T05:15:02;9.57;;;6.63;;
58528;SDS011;44322;52.968;5.816;2023-07-08T05:17:29;8.77;;;6.28;;
58528;SDS011;44322;52.968;5.816;2023-07-08T05:19:55;10.68;;;6.50;;
58528;SDS011;44322;52.968;5.816;2023-07-08T05:24:51;9.40;;;5.90;;
58528;SDS011;44322;52.968;5.816;2023-07-08T05:27:21;6.97;;;6.17;;
58528;SDS011;44322;52.968;5.816;2023-07-08T05:29:48;9.70;;;6.25;;
58528;SDS011;44322;52.968;5.816;2023-07-08T05:32:15;7.88;;;5.82;;
58528;SDS011;44322;52.968;5.816;2023-07-08T05:34:40;8.93;;;5.95;;
58528;SDS011;44322;52.968;5.816;2023-07-08T05:37:07;7.60;;;5.68;;
58528;SDS011;44322;52.968;5.816;2023-07-08T05:39:32;9.45;;;5.85;;
58528;SDS011;44322;52.968;5.816;2023-07-08T05:41:58;7.97;;;5.88;;
58528;SDS011;44322;52.968;5.816;2023-07-08T05:44:24;8.27;;;5.90;;
58528;SDS011;44322;52.968;5.816;2023-07-08T05:46:50;8.35;;;5.55;;
58528;SDS011;44322;52.968;5.816;2023-07-08T05:49:15;10.05;;;6.13;;
58528;SDS011;44322;52.968;5.816;2023-07-08T05:51:43;6.40;;;4.93;;
58528;SDS011;44322;52.968;5.816;2023-07-08T05:54:09;5.95;;;4.70;;
58528;SDS011;44322;52.968;5.816;2023-07-08T05:56:34;8.77;;;5.65;;
58528;SDS011;44322;52.968;5.816;2023-07-08T05:59:00;7.38;;;5.53;;
58528;SDS011;44322;52.968;5.816;2023-07-08T06:01:26;9.57;;;5.40;;
58528;SDS011;44322;52.968;5.816;2023-07-08T06:03:51;7.55;;;5.85;;
58528;SDS011;44322;52.968;5.816;2023-07-08T06:06:17;8.43;;;5.80;;
58528;SDS011;44322;52.968;5.816;2023-07-08T06:08:43;8.05;;;5.25;;
58528;SDS011;44322;52.968;5.816;2023-07-08T06:11:09;7.57;;;5.15;;
58528;SDS011;44322;52.968;5.816;2023-07-08T06:13:34;6.88;;;5.38;;
58528;SDS011;44322;52.968;5.816;2023-07-08T06:16:00;8.13;;;5.60;;
58528;SDS011;44322;52.968;5.816;2023-07-08T06:18:26;7.40;;;5.70;;
58528;SDS011;44322;52.968;5.816;2023-07-08T06:20:52;6.60;;;5.15;;
58528;SDS011;44322;52.968;5.816;2023-07-08T06:23:18;10.52;;;5.25;;
58528;SDS011;44322;52.968;5.816;2023-07-08T06:25:44;6.05;;;5.07;;
58528;SDS011;44322;52.968;5.816;2023-07-08T06:28:10;8.40;;;5.50;;
58528;SDS011;44322;52.968;5.816;2023-07-08T06:30:35;6.93;;;4.63;;
58528;SDS011;44322;52.968;5.816;2023-07-08T06:33:03;7.13;;;5.27;;
58528;SDS011;44322;52.968;5.816;2023-07-08T06:35:29;6.13;;;5.10;;
58528;SDS011;44322;52.968;5.816;2023-07-08T06:37:54;7.43;;;4.68;;
58528;SDS011;44322;52.968;5.816;2023-07-08T06:40:20;7.32;;;4.70;;
58528;SDS011;44322;52.968;5.816;2023-07-08T06:42:46;6.93;;;4.80;;
58528;SDS011;44322;52.968;5.816;2023-07-08T06:45:22;6.78;;;4.78;;
58528;SDS011;44322;52.968;5.816;2023-07-08T06:47:48;5.88;;;4.63;;
58528;SDS011;44322;52.968;5.816;2023-07-08T06:50:13;7.40;;;4.82;;
58528;SDS011;44322;52.968;5.816;2023-07-08T06:52:39;6.60;;;4.18;;
58528;SDS011;44322;52.968;5.816;2023-07-08T06:55:06;7.97;;;4.60;;
58528;SDS011;44322;52.968;5.816;2023-07-08T06:57:33;6.40;;;4.68;;
58528;SDS011;44322;52.968;5.816;2023-07-08T06:59:59;5.60;;;4.53;;
58528;SDS011;44322;52.968;5.816;2023-07-08T07:02:25;5.82;;;4.35;;
58528;SDS011;44322;52.968;5.816;2023-07-08T07:04:51;6.15;;;4.20;;
58528;SDS011;44322;52.968;5.816;2023-07-08T07:07:17;5.38;;;4.32;;
58528;SDS011;44322;52.968;5.816;2023-07-08T07:09:42;6.00;;;4.38;;
58528;SDS011;44322;52.968;5.816;2023-07-08T07:12:08;7.22;;;4.68;;
58528;SDS011;44322;52.968;5.816;2023-07-08T07:14:34;5.68;;;4.30;;
58528;SDS011;44322;52.968;5.816;2023-07-08T07:16:59;6.18;;;4.65;;
58528;SDS011;44322;52.968;5.816;2023-07-08T07:19:25;6.97;;;4.82;;
58528;SDS011;44322;52.968;5.816;2023-07-08T07:21:51;5.03;;;4.47;;
58528;SDS011;44322;52.968;5.816;2023-07-08T07:24:17;5.45;;;4.93;;
58528;SDS011;44322;52.968;5.816;2023-07-08T07:26:43;5.80;;;4.97;;
58528;SDS011;44322;52.968;5.816;2023-07-08T07:29:09;6.40;;;4.30;;
58528;SDS011;44322;52.968;5.816;2023-07-08T07:31:34;5.13;;;4.20;;
58528;SDS011;44322;52.968;5.816;2023-07-08T07:34:00;5.38;;;4.05;;
58528;SDS011;44322;52.968;5.816;2023-07-08T07:36:27;5.28;;;4.40;;
58528;SDS011;44322;52.968;5.816;2023-07-08T07:38:54;5.00;;;4.50;;
58528;SDS011;44322;52.968;5.816;2023-07-08T07:41:20;6.18;;;4.47;;
58528;SDS011;44322;52.968;5.816;2023-07-08T07:43:46;6.68;;;4.80;;
58528;SDS011;44322;52.968;5.816;2023-07-08T07:46:12;6.35;;;3.92;;
58528;SDS011;44322;52.968;5.816;2023-07-08T07:48:38;5.88;;;3.90;;
58528;SDS011;44322;52.968;5.816;2023-07-08T07:51:04;5.25;;;3.95;;
58528;SDS011;44322;52.968;5.816;2023-07-08T07:53:30;8.15;;;4.72;;
58528;SDS011;44322;52.968;5.816;2023-07-08T07:55:56;5.65;;;4.00;;
58528;SDS011;44322;52.968;5.816;2023-07-08T07:58:25;5.13;;;4.00;;
58528;SDS011;44322;52.968;5.816;2023-07-08T08:00:51;7.68;;;4.20;;
58528;SDS011;44322;52.968;5.816;2023-07-08T08:03:16;6.43;;;4.28;;
58528;SDS011;44322;52.968;5.816;2023-07-08T08:05:42;6.13;;;4.28;;
58528;SDS011;44322;52.968;5.816;2023-07-08T08:08:08;5.32;;;3.55;;
58528;SDS011;44322;52.968;5.816;2023-07-08T08:10:34;4.63;;;3.90;;
58528;SDS011;44322;52.968;5.816;2023-07-08T08:13:00;6.35;;;4.13;;
58528;SDS011;44322;52.968;5.816;2023-07-08T08:15:27;6.13;;;3.80;;
58528;SDS011;44322;52.968;5.816;2023-07-08T08:17:53;5.57;;;3.40;;
58528;SDS011;44322;52.968;5.816;2023-07-08T08:20:19;5.55;;;4.20;;
58528;SDS011;44322;52.968;5.816;2023-07-08T08:22:46;5.03;;;4.10;;
58528;SDS011;44322;52.968;5.816;2023-07-08T08:25:13;5.53;;;3.50;;
58528;SDS011;44322;52.968;5.816;2023-07-08T08:27:40;5.57;;;4.22;;
58528;SDS011;44322;52.968;5.816;2023-07-08T08:30:06;5.50;;;3.70;;
58528;SDS011;44322;52.968;5.816;2023-07-08T08:32:32;6.65;;;3.90;;
58528;SDS011;44322;52.968;5.816;2023-07-08T08:34:57;4.78;;;3.50;;
58528;SDS011;44322;52.968;5.816;2023-07-08T08:37:23;6.97;;;3.90;;
58528;SDS011;44322;52.968;5.816;2023-07-08T08:39:48;5.18;;;3.63;;
58528;SDS011;44322;52.968;5.816;2023-07-08T08:42:39;6.63;;;3.90;;
58528;SDS011;44322;52.968;5.816;2023-07-08T08:45:05;5.10;;;3.70;;
58528;SDS011;44322;52.968;5.816;2023-07-08T08:47:38;4.75;;;3.60;;
58528;SDS011;44322;52.968;5.816;2023-07-08T08:50:26;5.65;;;4.10;;
58528;SDS011;44322;52.968;5.816;2023-07-08T08:52:53;5.82;;;3.95;;
58528;SDS011;44322;52.968;5.816;2023-07-08T08:55:20;6.20;;;3.30;;
58528;SDS011;44322;52.968;5.816;2023-07-08T08:57:51;4.88;;;3.83;;
58528;SDS011;44322;52.968;5.816;2023-07-08T09:00:57;6.90;;;3.60;;
58528;SDS011;44322;52.968;5.816;2023-07-08T09:03:35;6.00;;;3.60;;
58528;SDS011;44322;52.968;5.816;2023-07-08T09:06:15;5.30;;;3.83;;
58528;SDS011;44322;52.968;5.816;2023-07-08T09:08:44;4.32;;;3.92;;
58528;SDS011;44322;52.968;5.816;2023-07-08T09:11:15;6.70;;;4.00;;
58528;SDS011;44322;52.968;5.816;2023-07-08T09:13:45;5.75;;;4.25;;
58528;SDS011;44322;52.968;5.816;2023-07-08T09:21:28;6.10;;;4.18;;
58528;SDS011;44322;52.968;5.816;2023-07-08T09:24:00;4.90;;;3.65;;
58528;SDS011;44322;52.968;5.816;2023-07-08T09:26:30;6.05;;;3.90;;
58528;SDS011;44322;52.968;5.816;2023-07-08T09:28:56;4.20;;;3.70;;
58528;SDS011;44322;52.968;5.816;2023-07-08T09:31:26;10.05;;;4.07;;
58528;SDS011;44322;52.968;5.816;2023-07-08T09:33:54;6.07;;;4.00;;
58528;SDS011;44322;52.968;5.816;2023-07-08T09:36:37;5.93;;;3.85;;
58528;SDS011;44322;52.968;5.816;2023-07-08T09:39:07;4.68;;;3.78;;
58528;SDS011;44322;52.968;5.816;2023-07-08T09:41:36;6.35;;;3.83;;
58528;SDS011;44322;52.968;5.816;2023-07-08T09:46:48;6.22;;;3.92;;
58528;SDS011;44322;52.968;5.816;2023-07-08T09:49:34;5.47;;;3.97;;
58528;SDS011;44322;52.968;5.816;2023-07-08T09:52:00;5.47;;;3.72;;
58528;SDS011;44322;52.968;5.816;2023-07-08T09:54:27;6.70;;;4.22;;
58528;SDS011;44322;52.968;5.816;2023-07-08T09:56:54;5.88;;;3.67;;
58528;SDS011;44322;52.968;5.816;2023-07-08T09:59:27;5.57;;;3.90;;
58528;SDS011;44322;52.968;5.816;2023-07-08T10:01:58;4.85;;;3.88;;
58528;SDS011;44322;52.968;5.816;2023-07-08T10:04:25;6.13;;;4.05;;
58528;SDS011;44322;52.968;5.816;2023-07-08T10:06:50;4.32;;;3.92;;
58528;SDS011;44322;52.968;5.816;2023-07-08T10:09:20;5.75;;;4.18;;
58528;SDS011;44322;52.968;5.816;2023-07-08T10:14:18;6.78;;;3.90;;
58528;SDS011;44322;52.968;5.816;2023-07-08T10:16:48;4.57;;;4.13;;
58528;SDS011;44322;52.968;5.816;2023-07-08T10:19:17;5.10;;;4.57;;
58528;SDS011;44322;52.968;5.816;2023-07-08T10:22:05;5.25;;;4.20;;
58528;SDS011;44322;52.968;5.816;2023-07-08T10:27:24;5.15;;;3.90;;
58528;SDS011;44322;52.968;5.816;2023-07-08T10:38:04;4.50;;;4.00;;
58528;SDS011;44322;52.968;5.816;2023-07-08T10:41:00;6.22;;;3.95;;
58528;SDS011;44322;52.968;5.816;2023-07-08T10:46:38;6.10;;;4.63;;
58528;SDS011;44322;52.968;5.816;2023-07-08T10:54:30;4.78;;;4.20;;
58528;SDS011;44322;52.968;5.816;2023-07-08T11:00:43;5.40;;;4.25;;
58528;SDS011;44322;52.968;5.816;2023-07-08T11:05:43;8.00;;;4.32;;
58528;SDS011;44322;52.968;5.816;2023-07-08T11:11:03;5.97;;;4.28;;
58528;SDS011;44322;52.968;5.816;2023-07-08T11:13:33;6.55;;;4.18;;
58528;SDS011;44322;52.968;5.816;2023-07-08T11:16:05;4.63;;;4.13;;
58528;SDS011;44322;52.968;5.816;2023-07-08T11:19:05;5.00;;;4.20;;
58528;SDS011;44322;52.968;5.816;2023-07-08T11:21:45;8.50;;;4.95;;
58528;SDS011;44322;52.968;5.816;2023-07-08T11:26:57;4.75;;;4.25;;
58528;SDS011;44322;52.968;5.816;2023-07-08T11:32:14;5.30;;;4.40;;
58528;SDS011;44322;52.968;5.816;2023-07-08T11:34:42;6.03;;;4.10;;
58528;SDS011;44322;52.968;5.816;2023-07-08T11:37:09;5.22;;;4.18;;
58528;SDS011;44322;52.968;5.816;2023-07-08T11:39:40;4.45;;;4.05;;
58528;SDS011;44322;52.968;5.816;2023-07-08T11:42:13;5.85;;;4.35;;
58528;SDS011;44322;52.968;5.816;2023-07-08T11:44:59;4.68;;;4.20;;
58528;SDS011;44322;52.968;5.816;2023-07-08T11:47:26;4.50;;;4.05;;
58528;SDS011;44322;52.968;5.816;2023-07-08T11:49:57;4.68;;;4.18;;
58528;SDS011;44322;52.968;5.816;2023-07-08T11:52:23;6.00;;;4.38;;
58528;SDS011;44322;52.968;5.816;2023-07-08T11:54:55;5.63;;;4.20;;
58528;SDS011;44322;52.968;5.816;2023-07-08T11:57:27;5.07;;;4.20;;
58528;SDS011;44322;52.968;5.816;2023-07-08T12:02:49;4.95;;;4.47;;
58528;SDS011;44322;52.968;5.816;2023-07-08T12:05:36;4.75;;;3.90;;
58528;SDS011;44322;52.968;5.816;2023-07-08T12:08:11;5.55;;;4.07;;
58528;SDS011;44322;52.968;5.816;2023-07-08T12:10:46;6.75;;;4.25;;
58528;SDS011;44322;52.968;5.816;2023-07-08T12:13:15;4.47;;;3.97;;
58528;SDS011;44322;52.968;5.816;2023-07-08T12:15:42;4.80;;;4.30;;
58528;SDS011;44322;52.968;5.816;2023-07-08T12:20:34;5.47;;;4.20;;
58528;SDS011;44322;52.968;5.816;2023-07-08T12:23:02;4.93;;;4.43;;
58528;SDS011;44322;52.968;5.816;2023-07-08T12:25:31;6.95;;;4.28;;
58528;SDS011;44322;52.968;5.816;2023-07-08T12:28:00;4.28;;;3.83;;
58528;SDS011;44322;52.968;5.816;2023-07-08T12:30:27;5.43;;;4.00;;
58528;SDS011;44322;52.968;5.816;2023-07-08T12:32:54;4.78;;;4.20;;
58528;SDS011;44322;52.968;5.816;2023-07-08T12:37:59;6.05;;;4.47;;
58528;SDS011;44322;52.968;5.816;2023-07-08T12:40:30;5.10;;;4.47;;
58528;SDS011;44322;52.968;5.816;2023-07-08T12:42:56;5.13;;;4.43;;
58528;SDS011;44322;52.968;5.816;2023-07-08T12:45:25;7.03;;;4.93;;
58528;SDS011;44322;52.968;5.816;2023-07-08T12:47:51;5.05;;;4.55;;
58528;SDS011;44322;52.968;5.816;2023-07-08T12:50:17;6.20;;;4.70;;
58528;SDS011;44322;52.968;5.816;2023-07-08T12:52:46;6.23;;;4.30;;
58528;SDS011;44322;52.968;5.816;2023-07-08T12:55:13;6.22;;;5.00;;
58528;SDS011;44322;52.968;5.816;2023-07-08T12:57:40;5.00;;;4.50;;
58528;SDS011;44322;52.968;5.816;2023-07-08T13:00:25;6.07;;;4.40;;
58528;SDS011;44322;52.968;5.816;2023-07-08T13:02:57;6.55;;;4.70;;
58528;SDS011;44322;52.968;5.816;2023-07-08T13:05:25;5.68;;;4.90;;
58528;SDS011;44322;52.968;5.816;2023-07-08T13:07:51;6.53;;;5.32;;
58528;SDS011;44322;52.968;5.816;2023-07-08T13:10:18;8.60;;;4.93;;
58528;SDS011;44322;52.968;5.816;2023-07-08T13:12:46;4.95;;;4.43;;
58528;SDS011;44322;52.968;5.816;2023-07-08T13:15:17;7.00;;;5.10;;
58528;SDS011;44322;52.968;5.816;2023-07-08T13:17:47;6.53;;;4.78;;
58528;SDS011;44322;52.968;5.816;2023-07-08T13:20:16;7.77;;;5.10;;
58528;SDS011;44322;52.968;5.816;2023-07-08T13:22:42;8.55;;;5.63;;
58528;SDS011;44322;52.968;5.816;2023-07-08T13:25:16;6.72;;;4.97;;
58528;SDS011;44322;52.968;5.816;2023-07-08T13:27:42;6.70;;;5.00;;
58528;SDS011;44322;52.968;5.816;2023-07-08T13:30:20;8.52;;;5.38;;
58528;SDS011;44322;52.968;5.816;2023-07-08T13:35:35;7.05;;;5.05;;
58528;SDS011;44322;52.968;5.816;2023-07-08T13:38:02;6.63;;;4.82;;
58528;SDS011;44322;52.968;5.816;2023-07-08T13:40:28;8.23;;;5.43;;
58528;SDS011;44322;52.968;5.816;2023-07-08T13:42:55;6.30;;;5.43;;
58528;SDS011;44322;52.968;5.816;2023-07-08T13:45:28;6.00;;;5.40;;
58528;SDS011;44322;52.968;5.816;2023-07-08T13:48:02;7.00;;;5.22;;
58528;SDS011;44322;52.968;5.816;2023-07-08T13:50:31;6.68;;;5.38;;
58528;SDS011;44322;52.968;5.816;2023-07-08T13:53:13;7.43;;;5.25;;
58528;SDS011;44322;52.968;5.816;2023-07-08T13:55:41;7.60;;;5.50;;
58528;SDS011;44322;52.968;5.816;2023-07-08T13:58:07;8.63;;;5.90;;
58528;SDS011;44322;52.968;5.816;2023-07-08T14:00:40;8.75;;;5.97;;
58528;SDS011;44322;52.968;5.816;2023-07-08T14:03:09;6.37;;;5.10;;
58528;SDS011;44322;52.968;5.816;2023-07-08T14:05:39;7.80;;;5.65;;
58528;SDS011;44322;52.968;5.816;2023-07-08T14:08:15;6.80;;;5.55;;
58528;SDS011;44322;52.968;5.816;2023-07-08T14:10:43;8.05;;;5.18;;
58528;SDS011;44322;52.968;5.816;2023-07-08T14:13:09;8.43;;;5.65;;
58528;SDS011;44322;52.968;5.816;2023-07-08T14:15:36;7.53;;;5.40;;
58528;SDS011;44322;52.968;5.816;2023-07-08T14:18:04;6.13;;;5.40;;
58528;SDS011;44322;52.968;5.816;2023-07-08T14:20:30;8.10;;;5.77;;
58528;SDS011;44322;52.968;5.816;2023-07-08T14:22:56;10.33;;;6.03;;
58528;SDS011;44322;52.968;5.816;2023-07-08T14:25:21;7.67;;;6.07;;
58528;SDS011;44322;52.968;5.816;2023-07-08T14:27:52;8.65;;;5.65;;
58528;SDS011;44322;52.968;5.816;2023-07-08T14:30:17;6.97;;;6.00;;
58528;SDS011;44322;52.968;5.816;2023-07-08T14:32:43;6.38;;;5.25;;
58528;SDS011;44322;52.968;5.816;2023-07-08T14:35:22;9.33;;;6.10;;
58528;SDS011;44322;52.968;5.816;2023-07-08T14:37:53;9.10;;;6.30;;
58528;SDS011;44322;52.968;5.816;2023-07-08T14:40:27;7.97;;;6.10;;
58528;SDS011;44322;52.968;5.816;2023-07-08T14:43:00;8.05;;;5.68;;
58528;SDS011;44322;52.968;5.816;2023-07-08T14:45:40;6.68;;;5.55;;
58528;SDS011;44322;52.968;5.816;2023-07-08T14:48:16;6.47;;;5.45;;
58528;SDS011;44322;52.968;5.816;2023-07-08T14:51:57;8.75;;;6.18;;
58528;SDS011;44322;52.968;5.816;2023-07-08T14:54:23;9.83;;;6.07;;
58528;SDS011;44322;52.968;5.816;2023-07-08T14:56:48;8.87;;;6.20;;
58528;SDS011;44322;52.968;5.816;2023-07-08T14:59:15;6.63;;;5.20;;
58528;SDS011;44322;52.968;5.816;2023-07-08T15:01:43;9.27;;;6.32;;
58528;SDS011;44322;52.968;5.816;2023-07-08T15:04:10;8.90;;;5.65;;
58528;SDS011;44322;52.968;5.816;2023-07-08T15:06:36;9.90;;;6.07;;
58528;SDS011;44322;52.968;5.816;2023-07-08T15:09:02;10.93;;;5.97;;
58528;SDS011;44322;52.968;5.816;2023-07-08T15:11:30;10.27;;;5.90;;
58528;SDS011;44322;52.968;5.816;2023-07-08T15:14:03;9.02;;;6.10;;
58528;SDS011;44322;52.968;5.816;2023-07-08T15:16:57;7.40;;;5.53;;
58528;SDS011;44322;52.968;5.816;2023-07-08T15:19:25;7.25;;;5.70;;
58528;SDS011;44322;52.968;5.816;2023-07-08T15:21:53;10.88;;;6.25;;
58528;SDS011;44322;52.968;5.816;2023-07-08T15:24:19;8.53;;;6.00;;
58528;SDS011;44322;52.968;5.816;2023-07-08T15:26:46;10.03;;;6.00;;
58528;SDS011;44322;52.968;5.816;2023-07-08T15:29:16;9.85;;;5.88;;
58528;SDS011;44322;52.968;5.816;2023-07-08T15:31:51;8.32;;;5.25;;
58528;SDS011;44322;52.968;5.816;2023-07-08T15:34:18;9.17;;;5.87;;
58528;SDS011;44322;52.968;5.816;2023-07-08T15:36:45;7.68;;;5.72;;
58528;SDS011;44322;52.968;5.816;2023-07-08T15:39:10;8.47;;;5.90;;
58528;SDS011;44322;52.968;5.816;2023-07-08T15:41:38;8.95;;;5.90;;
58528;SDS011;44322;52.968;5.816;2023-07-08T15:44:04;7.87;;;5.60;;
58528;SDS011;44322;52.968;5.816;2023-07-08T15:46:37;7.70;;;5.65;;
58528;SDS011;44322;52.968;5.816;2023-07-08T15:49:16;7.43;;;5.53;;
58528;SDS011;44322;52.968;5.816;2023-07-08T15:51:48;9.05;;;6.45;;
58528;SDS011;44322;52.968;5.816;2023-07-08T15:54:14;8.63;;;5.70;;
58528;SDS011;44322;52.968;5.816;2023-07-08T15:56:40;6.82;;;5.45;;
58528;SDS011;44322;52.968;5.816;2023-07-08T15:59:13;9.93;;;6.00;;